Time;durP1;ratioP1;P1;durP2;ratioP2;P2;SDS_P1;SDS_P2;PMS_P1;PMS_P2;Temp;Humidity;BMP_temperature;BMP_pressure;BME280_temperature;BME280_humidity;BME280_pressure;Samples;Min_cycle;Max_cycle;Signal;HPM_P1;HPM_P2
2022/09/19 00:00:44;;;;;;;20.87;5.90;;;12.70;96.10;;;;;;5019625;28;20837;-63
2022/09/19 00:03:11;;;;;;;15.23;8.10;;;12.60;96.10;;;;;;5019360;28;20584;-62
2022/09/19 00:05:39;;;;;;;26.97;5.17;;;12.50;96.00;;;;;;5022836;28;20511;-62
2022/09/19 00:08:06;;;;;;;24.00;11.30;;;12.50;96.00;;;;;;5019696;28;20484;-62
2022/09/19 00:10:39;;;;;;;15.70;6.27;;;12.40;95.80;;;;;;5025860;28;20694;-61
2022/09/19 00:13:07;;;;;;;25.13;8.20;;;12.40;95.70;;;;;;5013686;28;20480;-61
2022/09/19 00:15:34;;;;;;;9.03;5.73;;;12.30;95.50;;;;;;4998243;28;20481;-61
2022/09/19 00:18:01;;;;;;;24.50;8.90;;;12.30;95.30;;;;;;5024086;28;20485;-61
2022/09/19 00:20:28;;;;;;;14.93;3.93;;;12.20;95.20;;;;;;5014564;28;20855;-62
2022/09/19 00:25:41;;;;;;;15.60;4.60;;;12.20;95.10;;;;;;5014928;28;21248;-61
2022/09/19 00:28:08;;;;;;;28.90;10.90;;;12.20;95.10;;;;;;5010758;28;20881;-61
2022/09/19 00:30:38;;;;;;;15.03;5.17;;;12.20;95.10;;;;;;5015714;28;20477;-61
2022/09/19 00:33:05;;;;;;;23.57;9.57;;;12.20;95.00;;;;;;5006938;28;20481;-61
2022/09/19 00:35:32;;;;;;;11.03;4.90;;;12.20;95.00;;;;;;5031942;28;20495;-62
2022/09/19 00:37:59;;;;;;;17.13;5.27;;;;;;;;;;5014992;28;20497;-62
2022/09/19 00:40:26;;;;;;;11.27;5.20;;;12.00;95.20;;;;;;5016602;28;20479;-61
2022/09/19 00:42:54;;;;;;;8.83;4.67;;;11.90;95.40;;;;;;5011215;28;20479;-61
2022/09/19 00:45:21;;;;;;;13.23;4.50;;;11.70;95.60;;;;;;5017624;28;20476;-61
2022/09/19 00:47:50;;;;;;;12.37;5.63;;;11.60;95.70;;;;;;5022435;28;20504;-61
2022/09/19 00:50:22;;;;;;;10.80;4.90;;;11.50;95.60;;;;;;5009510;28;20729;-61
2022/09/19 00:52:52;;;;;;;12.90;3.60;;;;;;;;;;5017095;28;20653;-62
2022/09/19 00:55:19;;;;;;;10.87;4.77;;;;;;;;;;5016399;28;20497;-62
2022/09/19 00:58:05;;;;;;;10.50;4.90;;;11.10;95.80;;;;;;5015463;28;21331;-61
2022/09/19 01:00:33;;;;;;;9.23;4.17;;;11.00;96.00;;;;;;5001470;28;20570;-62
2022/09/19 01:03:01;;;;;;;18.60;8.37;;;11.00;96.20;;;;;;5010811;28;20550;-63
2022/09/19 01:05:35;;;;;;;14.83;5.17;;;11.00;96.50;;;;;;5011596;28;20863;-61
2022/09/19 01:08:45;;;;;;;18.90;7.80;;;11.00;97.30;;;;;;4990426;28;20475;-61
2022/09/19 01:11:19;;;;;;;18.73;8.27;;;;;;;;;;5002196;28;21107;-62
2022/09/19 01:13:54;;;;;;;12.53;3.83;;;11.00;97.90;;;;;;5014798;28;20822;-61
2022/09/19 01:16:33;;;;;;;15.00;6.20;;;;;;;;;;5014084;28;21143;-62
2022/09/19 01:19:08;;;;;;;17.00;5.77;;;11.00;97.80;;;;;;5013770;28;20958;-62
2022/09/19 01:21:38;;;;;;;15.73;5.40;;;11.00;97.70;;;;;;5003409;28;20480;-62
2022/09/19 01:24:37;;;;;;;24.40;9.10;;;11.00;97.70;;;;;;5013191;28;20493;-62
2022/09/19 01:27:31;;;;;;;16.63;8.03;;;11.10;97.50;;;;;;5011596;28;20566;-62
2022/09/19 01:30:02;;;;;;;15.20;5.87;;;;;;;;;;5012633;28;20481;-62
2022/09/19 01:32:33;;;;;;;12.60;4.60;;;11.10;97.30;;;;;;5018112;28;20492;-62
2022/09/19 01:35:03;;;;;;;27.30;8.10;;;11.10;97.20;;;;;;5014188;28;21009;-62
2022/09/19 01:37:35;;;;;;;21.03;7.20;;;11.10;97.30;;;;;;5014594;28;20985;-62
2022/09/19 01:40:05;;;;;;;11.60;5.03;;;11.10;97.30;;;;;;5007904;28;21472;-62
2022/09/19 01:42:32;;;;;;;13.53;5.73;;;11.10;97.30;;;;;;5020755;28;20489;-61
2022/09/19 01:45:00;;;;;;;16.60;6.87;;;11.10;97.30;;;;;;5013198;28;20489;-61
2022/09/19 01:47:34;;;;;;;12.87;4.60;;;11.10;97.20;;;;;;5013646;28;20704;-61
2022/09/19 01:50:05;;;;;;;20.17;7.37;;;;;;;;;;5014655;28;20509;-61
2022/09/19 01:52:49;;;;;;;14.80;6.20;;;11.20;96.90;;;;;;5010764;28;20877;-61
2022/09/19 01:55:22;;;;;;;22.67;6.93;;;;;;;;;;5009742;28;20500;-61
2022/09/19 01:57:55;;;;;;;20.40;5.70;;;11.10;96.90;;;;;;5021755;28;20810;-61
2022/09/19 02:00:25;;;;;;;12.87;6.40;;;11.10;97.00;;;;;;5013183;28;21028;-61
2022/09/19 02:03:03;;;;;;;14.40;4.90;;;11.00;97.20;;;;;;5009118;28;20489;-61
2022/09/19 02:05:37;;;;;;;13.30;5.70;;;11.10;97.60;;;;;;5012607;28;20495;-62
2022/09/19 02:08:11;;;;;;;14.57;5.57;;;11.00;97.80;;;;;;5010040;28;20688;-61
2022/09/19 02:10:41;;;;;;;21.10;5.37;;;11.00;98.00;;;;;;5008197;28;20722;-61
2022/09/19 02:13:12;;;;;;;28.40;10.43;;;11.00;97.80;;;;;;5023113;28;20468;-61
2022/09/19 02:15:46;;;;;;;12.30;5.87;;;10.90;98.10;;;;;;5015142;28;21048;-61
2022/09/19 02:18:24;;;;;;;22.50;9.30;;;11.10;98.50;;;;;;5007484;28;21361;-61
2022/09/19 02:20:54;;;;;;;17.07;6.33;;;10.80;98.40;;;;;;5009431;28;20541;-62
2022/09/19 02:23:25;;;;;;;11.77;4.83;;;10.80;98.60;;;;;;5015728;28;20628;-61
2022/09/19 02:25:54;;;;;;;5.93;3.77;;;10.80;98.60;;;;;;5015344;28;20884;-62
2022/09/19 02:28:26;;;;;;;10.13;4.70;;;10.80;98.60;;;;;;5012682;28;20481;-60
2022/09/19 02:30:54;;;;;;;13.27;3.90;;;10.70;98.50;;;;;;5014097;28;20836;-61
2022/09/19 02:33:21;;;;;;;18.97;7.57;;;10.80;98.80;;;;;;5011232;28;20945;-61
2022/09/19 02:35:52;;;;;;;23.30;5.93;;;13.50;99.90;;;;;;5013265;28;21048;-62
2022/09/19 02:38:26;;;;;;;10.33;5.47;;;10.60;99.20;;;;;;5013165;28;20492;-62
2022/09/19 02:40:55;;;;;;;14.83;4.80;;;;;;;;;;5011953;28;20483;-62
2022/09/19 02:43:29;;;;;;;13.00;5.70;;;10.50;99.40;;;;;;5013284;28;20485;-61
2022/09/19 02:46:05;;;;;;;10.50;4.37;;;10.30;99.90;;;;;;5012760;28;20682;-62
2022/09/19 02:48:41;;;;;;;12.00;5.60;;;10.30;99.90;;;;;;5011169;28;20530;-61
2022/09/19 02:51:11;;;;;;;17.77;8.57;;;;;;;;;;5007489;28;20469;-61
2022/09/19 02:53:42;;;;;;;15.30;5.33;;;10.30;99.90;;;;;;5015123;28;20480;-61
2022/09/19 02:56:13;;;;;;;20.53;8.73;;;;;;;;;;5014277;28;20465;-61
2022/09/19 02:58:43;;;;;;;11.23;5.80;;;;;;;;;;5012834;28;20488;-61
2022/09/19 03:01:12;;;;;;;16.73;9.40;;;;;;;;;;5014293;28;20480;-61
2022/09/19 03:06:34;;;;;;;16.93;5.40;;;10.40;99.90;;;;;;5017764;28;20496;-62
2022/09/19 03:09:02;;;;;;;17.87;7.80;;;10.40;99.90;;;;;;5011539;28;20485;-61
2022/09/19 03:11:33;;;;;;;14.50;5.60;;;10.40;99.80;;;;;;5008068;28;21032;-61
2022/09/19 03:14:00;;;;;;;14.90;5.10;;;10.40;99.90;;;;;;5013533;28;20536;-60
2022/09/19 03:16:34;;;;;;;12.27;5.47;;;10.40;99.90;;;;;;5008811;28;20928;-61
2022/09/19 03:19:04;;;;;;;25.70;8.10;;;10.40;99.80;;;;;;5006632;28;20472;-61
2022/09/19 03:21:31;;;;;;;7.90;4.47;;;10.40;99.90;;;;;;5013524;28;20489;-61
2022/09/19 03:23:59;;;;;;;11.90;5.37;;;10.40;99.90;;;;;;5013790;28;20751;-61
2022/09/19 03:26:30;;;;;;;11.93;6.57;;;10.40;99.90;;;;;;5018088;28;20861;-61
2022/09/19 03:28:58;;;;;;;13.53;6.53;;;10.30;99.90;;;;;;5009455;28;21106;-61
2022/09/19 03:31:25;;;;;;;16.53;6.17;;;10.30;99.90;;;;;;5011553;28;20480;-61
2022/09/19 03:33:55;;;;;;;11.27;4.97;;;10.30;99.90;;;;;;5009361;28;20588;-61
2022/09/19 03:36:23;;;;;;;13.97;7.10;;;10.30;99.90;;;;;;5011821;28;20551;-61
2022/09/19 03:38:50;;;;;;;16.63;4.90;;;10.90;99.90;;;;;;5012951;28;20485;-61
2022/09/19 03:41:19;;;;;;;12.13;6.80;;;10.20;99.90;;;;;;5011430;28;21016;-61
2022/09/19 03:43:46;;;;;;;12.03;6.40;;;10.10;99.90;;;;;;5010391;28;20709;-61
2022/09/19 03:46:15;;;;;;;16.23;7.33;;;10.10;99.90;;;;;;5016743;28;21095;-61
2022/09/19 03:48:44;;;;;;;26.83;9.00;;;;;;;;;;5017139;28;21408;-62
2022/09/19 03:51:13;;;;;;;25.90;10.23;;;9.90;99.90;;;;;;5012668;28;20830;-62
2022/09/19 03:53:42;;;;;;;18.10;7.97;;;10.00;99.90;;;;;;5010495;28;20489;-62
2022/09/19 03:56:09;;;;;;;34.53;11.30;;;;;;;;;;5017000;28;20591;-61
2022/09/19 03:58:36;;;;;;;20.07;7.73;;;10.00;99.90;;;;;;5016362;28;20477;-62
2022/09/19 04:01:04;;;;;;;31.40;12.73;;;10.00;99.90;;;;;;5016257;28;20993;-62
2022/09/19 04:03:31;;;;;;;17.60;7.00;;;10.00;99.90;;;;;;5017476;28;20488;-61
2022/09/19 04:05:57;;;;;;;10.70;5.17;;;9.90;99.90;;;;;;5015532;28;20485;-61
2022/09/19 04:08:25;;;;;;;14.73;6.60;;;9.90;99.90;;;;;;5016380;28;20496;-61
2022/09/19 04:10:52;;;;;;;12.00;6.13;;;9.90;99.90;;;;;;4998675;28;20492;-62
2022/09/19 04:13:20;;;;;;;18.63;6.80;;;9.90;99.90;;;;;;5017500;28;20496;-63
2022/09/19 04:15:47;;;;;;;14.60;5.90;;;9.80;99.90;;;;;;5016857;28;21605;-64
2022/09/19 04:18:14;;;;;;;30.10;10.23;;;9.80;99.90;;;;;;5011897;28;20860;-63
2022/09/19 04:20:41;;;;;;;11.17;5.50;;;;;;;;;;5016028;28;20977;-62
2022/09/19 04:23:09;;;;;;;18.63;8.70;;;9.90;99.90;;;;;;5013703;28;21033;-63
2022/09/19 04:25:38;;;;;;;16.93;7.53;;;9.80;99.90;;;;;;5014070;28;20478;-61
2022/09/19 04:28:09;;;;;;;10.77;6.50;;;8.20;99.90;;;;;;5013205;28;20494;-61
2022/09/19 04:30:37;;;;;;;16.40;6.83;;;9.60;99.90;;;;;;5013841;28;20479;-62
2022/09/19 04:33:04;;;;;;;15.90;8.27;;;9.60;99.90;;;;;;5014757;28;20485;-63
2022/09/19 04:35:34;;;;;;;15.30;5.50;;;9.60;99.90;;;;;;5013241;28;20473;-63
2022/09/19 04:38:01;;;;;;;30.90;8.47;;;9.50;99.90;;;;;;5015094;28;20477;-63
2022/09/19 04:40:28;;;;;;;15.00;6.60;;;9.50;99.90;;;;;;5013815;28;20477;-61
2022/09/19 04:42:57;;;;;;;15.00;4.27;;;9.60;99.90;;;;;;5014430;28;20499;-62
2022/09/19 04:45:24;;;;;;;18.57;6.80;;;9.50;99.90;;;;;;5015196;28;20821;-61
2022/09/19 04:47:52;;;;;;;13.40;5.50;;;9.50;99.90;;;;;;5015469;28;20492;-61
2022/09/19 04:50:18;;;;;;;14.13;5.47;;;9.40;99.90;;;;;;5014799;28;20497;-62
2022/09/19 04:52:45;;;;;;;12.27;6.90;;;;;;;;;;5015140;28;20760;-62
2022/09/19 04:55:13;;;;;;;20.83;10.63;;;;;;;;;;5016546;28;20861;-61
2022/09/19 04:57:39;;;;;;;9.53;5.77;;;9.30;99.90;;;;;;5014487;28;20485;-61
2022/09/19 05:00:09;;;;;;;19.27;10.00;;;9.30;99.90;;;;;;5013460;28;20719;-61
2022/09/19 05:02:36;;;;;;;10.30;5.57;;;9.30;99.90;;;;;;5016109;28;20482;-61
2022/09/19 05:05:04;;;;;;;20.93;10.13;;;9.30;99.90;;;;;;5016541;28;20477;-62
2022/09/19 05:07:34;;;;;;;22.23;8.83;;;9.30;99.90;;;;;;5016597;28;20492;-62
2022/09/19 05:10:01;;;;;;;13.47;6.50;;;9.30;99.90;;;;;;5002964;28;21050;-62
2022/09/19 05:12:28;;;;;;;9.67;4.87;;;9.30;99.90;;;;;;5015781;28;20544;-62
2022/09/19 05:14:55;;;;;;;17.13;5.03;;;9.20;99.90;;;;;;5016119;28;20488;-62
2022/09/19 05:17:24;;;;;;;14.63;6.33;;;9.30;99.90;;;;;;5016104;28;20492;-62
2022/09/19 05:19:50;;;;;;;11.50;6.03;;;9.20;99.90;;;;;;5014263;28;20489;-62
2022/09/19 05:22:17;;;;;;;14.10;7.10;;;9.20;99.90;;;;;;5018345;28;20899;-62
2022/09/19 05:24:44;;;;;;;11.17;5.77;;;9.20;99.90;;;;;;5019258;28;20655;-61
2022/09/19 05:27:11;;;;;;;18.93;9.13;;;9.30;99.90;;;;;;5014822;28;20990;-62
2022/09/19 05:29:39;;;;;;;12.97;7.33;;;9.30;99.90;;;;;;5012802;28;20517;-62
2022/09/19 05:32:06;;;;;;;26.47;9.03;;;9.30;99.90;;;;;;5014574;28;20565;-62
2022/09/19 05:34:34;;;;;;;9.40;5.93;;;9.40;99.90;;;;;;5008886;28;20559;-61
2022/09/19 05:37:01;;;;;;;26.43;7.27;;;9.50;99.90;;;;;;5027276;28;20480;-61
2022/09/19 05:39:28;;;;;;;12.00;5.90;;;9.60;99.90;;;;;;5008122;28;20484;-62
2022/09/19 05:41:54;;;;;;;17.60;6.20;;;9.70;99.90;;;;;;5019532;28;20473;-61
2022/09/19 05:44:22;;;;;;;20.00;6.10;;;9.80;99.90;;;;;;5017475;28;20490;-60
2022/09/19 05:46:51;;;;;;;10.30;5.53;;;;;;;;;;5014513;28;20513;-61
2022/09/19 05:49:18;;;;;;;15.20;7.50;;;10.00;99.90;;;;;;5001234;28;20492;-62
2022/09/19 05:51:46;;;;;;;17.20;7.13;;;10.10;99.90;;;;;;5011109;28;20785;-61
2022/09/19 05:54:11;;;;;;;29.80;11.03;;;10.20;99.90;;;;;;5014171;28;20485;-61
2022/09/19 05:56:38;;;;;;;14.93;6.73;;;10.30;99.90;;;;;;5011409;28;20484;-62
2022/09/19 05:59:05;;;;;;;21.63;7.63;;;;;;;;;;5013165;28;20548;-61
2022/09/19 06:01:32;;;;;;;22.67;6.93;;;10.50;99.90;;;;;;5015129;28;20864;-61
2022/09/19 06:03:59;;;;;;;10.90;5.90;;;10.50;99.90;;;;;;5012246;28;20993;-61
2022/09/19 06:06:27;;;;;;;15.53;7.63;;;10.60;99.90;;;;;;5014981;28;20846;-62
2022/09/19 06:08:58;;;;;;;22.40;7.17;;;14.50;99.90;;;;;;5009424;28;20583;-62
2022/09/19 06:11:25;;;;;;;10.93;6.23;;;10.80;99.90;;;;;;5015164;28;20505;-61
2022/09/19 06:16:37;;;;;;;15.13;7.20;;;11.00;99.90;;;;;;5018894;28;20550;-61
2022/09/19 06:19:05;;;;;;;23.73;10.00;;;11.50;99.90;;;;;;5010911;28;20481;-60
2022/09/19 06:21:32;;;;;;;23.60;7.23;;;12.10;99.90;;;;;;5017954;28;20483;-61
2022/09/19 06:24:01;;;;;;;12.57;8.17;;;12.70;99.90;;;;;;5012230;28;20961;-62
2022/09/19 06:26:27;;;;;;;17.37;6.13;;;13.40;99.60;;;;;;5015608;28;20499;-61
2022/09/19 06:28:54;;;;;;;13.63;5.10;;;14.20;98.00;;;;;;5014443;28;20481;-61
2022/09/19 06:31:21;;;;;;;17.40;6.43;;;14.70;96.30;;;;;;5016636;28;20502;-62
2022/09/19 06:33:48;;;;;;;10.53;7.00;;;15.10;96.00;;;;;;5012089;28;20900;-63
2022/09/19 06:36:14;;;;;;;23.20;7.37;;;16.30;94.90;;;;;;5011345;28;20485;-62
2022/09/19 06:38:42;;;;;;;9.47;6.70;;;16.50;93.80;;;;;;5011792;28;20489;-62
2022/09/19 06:41:11;;;;;;;12.33;7.27;;;17.20;93.30;;;;;;5008499;28;20492;-61
2022/09/19 06:43:38;;;;;;;16.90;5.20;;;17.50;91.40;;;;;;5006787;28;20780;-62
2022/09/19 06:46:05;;;;;;;12.00;7.33;;;17.80;91.60;;;;;;5022345;28;20805;-62
2022/09/19 06:48:35;;;;;;;8.90;5.47;;;18.10;91.30;;;;;;5014720;28;21329;-62
2022/09/19 06:51:02;;;;;;;14.50;5.10;;;18.60;90.50;;;;;;5015559;28;20487;-62
2022/09/19 06:53:28;;;;;;;10.63;8.00;;;18.60;89.10;;;;;;5022268;28;20473;-62
2022/09/19 06:55:56;;;;;;;9.50;5.10;;;19.10;89.80;;;;;;5009731;28;20870;-62
2022/09/19 06:58:25;;;;;;;14.70;5.50;;;19.40;87.80;;;;;;5017038;28;20510;-62
2022/09/19 07:00:53;;;;;;;9.70;4.93;;;19.20;87.40;;;;;;5011915;28;20485;-62
2022/09/19 07:03:20;;;;;;;6.70;5.20;;;;;;;;;;5014418;28;20485;-63
2022/09/19 07:05:47;;;;;;;9.63;5.93;;;19.50;87.40;;;;;;5012079;28;20485;-62
2022/09/19 07:08:14;;;;;;;15.70;7.13;;;19.90;86.90;;;;;;5011523;28;20492;-63
2022/09/19 07:10:42;;;;;;;13.67;5.30;;;20.00;85.80;;;;;;5014938;28;20477;-62
2022/09/19 07:13:13;;;;;;;10.40;8.13;;;20.00;83.70;;;;;;5003313;28;20489;-63
2022/09/19 07:15:42;;;;;;;10.17;7.90;;;20.20;85.80;;;;;;4991195;28;20551;-64
2022/09/19 07:18:10;;;;;;;27.43;7.93;;;20.20;84.60;;;;;;4998061;28;20481;-63
2022/09/19 07:20:37;;;;;;;6.20;5.60;;;19.80;84.70;;;;;;5010571;28;20481;-63
2022/09/19 07:23:07;;;;;;;7.23;6.53;;;19.80;85.70;;;;;;5027333;28;20534;-63
2022/09/19 07:25:34;;;;;;;11.93;4.53;;;19.90;85.80;;;;;;5025073;28;20488;-63
2022/09/19 07:28:03;;;;;;;9.90;5.87;;;20.70;85.40;;;;;;5017901;28;21428;-63
2022/09/19 07:30:31;;;;;;;5.63;4.90;;;19.60;84.00;;;;;;5025399;28;20477;-64
2022/09/19 07:33:01;;;;;;;13.20;4.87;;;19.00;85.40;;;;;;5023605;28;20483;-63
2022/09/19 07:35:29;;;;;;;15.03;5.70;;;18.90;88.10;;;;;;5022741;28;21027;-63
2022/09/19 07:37:57;;;;;;;5.57;3.87;;;18.60;87.20;;;;;;5020800;28;21041;-63
2022/09/19 07:40:24;;;;;;;12.60;5.67;;;18.40;88.70;;;;;;5016789;28;20480;-62
2022/09/19 07:42:51;;;;;;;11.20;5.33;;;18.20;87.00;;;;;;5035162;28;20472;-63
2022/09/19 07:45:18;;;;;;;8.13;6.53;;;18.10;88.20;;;;;;5020120;28;21000;-63
2022/09/19 07:47:47;;;;;;;22.83;6.60;;;17.50;89.60;;;;;;5020546;28;20481;-63
2022/09/19 07:50:17;;;;;;;10.67;7.20;;;17.20;89.70;;;;;;5021533;28;20484;-63
2022/09/19 07:52:46;;;;;;;32.37;14.27;;;17.30;90.20;;;;;;5020980;28;21012;-63
2022/09/19 07:55:13;;;;;;;16.97;9.17;;;17.10;90.30;;;;;;5022751;28;20535;-63
2022/09/19 07:57:49;;;;;;;13.73;7.90;;;17.00;90.80;;;;;;5021189;28;20488;-63
2022/09/19 08:00:16;;;;;;;14.90;8.37;;;17.10;90.70;;;;;;5008592;28;20467;-62
2022/09/19 08:02:43;;;;;;;22.43;10.03;;;16.60;90.40;;;;;;5012047;28;20868;-63
2022/09/19 08:05:11;;;;;;;22.60;10.80;;;16.30;90.50;;;;;;5023318;28;20477;-63
2022/09/19 08:07:39;;;;;;;21.83;9.27;;;;;;;;;;5021324;28;20531;-63
2022/09/19 08:10:08;;;;;;;27.23;13.60;;;16.00;91.90;;;;;;5016835;28;20492;-63
2022/09/19 08:12:34;;;;;;;21.03;8.60;;;13.10;90.70;;;;;;5022050;28;20488;-63
2022/09/19 08:15:01;;;;;;;29.53;9.10;;;15.80;91.70;;;;;;5013663;28;20477;-63
2022/09/19 08:17:28;;;;;;;23.00;11.20;;;15.50;92.30;;;;;;5022282;28;20561;-63
2022/09/19 08:19:56;;;;;;;16.83;7.00;;;15.50;92.50;;;;;;5021677;28;20869;-63
2022/09/19 08:22:24;;;;;;;24.70;8.10;;;15.40;92.50;;;;;;5023874;28;20500;-62
2022/09/19 08:24:52;;;;;;;15.37;7.77;;;;;;;;;;5020670;28;20468;-63
2022/09/19 08:27:19;;;;;;;25.97;7.97;;;15.40;93.50;;;;;;5000946;28;20476;-62
2022/09/19 08:29:46;;;;;;;19.83;8.57;;;15.50;93.10;;;;;;5012441;28;20480;-62
2022/09/19 08:32:13;;;;;;;23.80;10.70;;;15.50;93.10;;;;;;5008258;28;20498;-62
2022/09/19 08:34:40;;;;;;;16.20;7.80;;;15.70;93.30;;;;;;5019896;28;20891;-61
2022/09/19 08:37:06;;;;;;;28.07;12.63;;;15.60;92.70;;;;;;5024844;28;20476;-62
2022/09/19 08:39:33;;;;;;;19.20;9.20;;;15.80;93.40;;;;;;5022794;28;20484;-62
2022/09/19 08:42:15;;;;;;;21.40;6.93;;;16.10;93.20;;;;;;5010753;28;20798;-62
2022/09/19 08:44:55;;;;;;;32.70;9.67;;;16.20;92.90;;;;;;5014566;28;20958;-62
2022/09/19 08:47:24;;;;;;;18.03;5.30;;;16.40;93.20;;;;;;5024982;28;20480;-61
2022/09/19 08:49:55;;;;;;;17.63;8.60;;;16.40;92.00;;;;;;5024341;28;20885;-61
2022/09/19 08:52:32;;;;;;;22.27;7.43;;;16.30;92.40;;;;;;5026072;28;20853;-62
2022/09/19 08:55:00;;;;;;;27.50;10.80;;;;;;;;;;5023314;28;20491;-61
2022/09/19 08:57:31;;;;;;;15.20;8.77;;;16.20;91.80;;;;;;5022604;28;20477;-62
2022/09/19 09:00:04;;;;;;;17.33;7.07;;;16.50;92.80;;;;;;5027352;28;20475;-62
2022/09/19 09:02:42;;;;;;;14.23;7.90;;;16.50;93.20;;;;;;5031768;28;20466;-62
2022/09/19 09:05:14;;;;;;;22.43;11.93;;;16.50;92.60;;;;;;5025097;28;20488;-62
2022/09/19 09:07:52;;;;;;;14.17;8.03;;;16.70;93.10;;;;;;5018941;28;20771;-62
2022/09/19 09:10:23;;;;;;;14.80;7.43;;;;;;;;;;5018135;28;20827;-61
2022/09/19 09:13:00;;;;;;;16.33;6.90;;;17.10;91.70;;;;;;5021635;28;20492;-62
2022/09/19 09:15:32;;;;;;;15.80;6.37;;;;;;;;;;5015147;28;20650;-62
2022/09/19 09:18:20;;;;;;;23.80;7.53;;;17.20;92.20;;;;;;5023029;28;20469;-62
2022/09/19 09:20:52;;;;;;;15.17;6.80;;;17.00;91.30;;;;;;5021598;28;21119;-62
2022/09/19 09:23:22;;;;;;;20.30;6.07;;;17.10;91.60;;;;;;5023688;28;20694;-62
2022/09/19 09:25:54;;;;;;;24.87;6.47;;;17.30;91.30;;;;;;5026316;28;20491;-62
2022/09/19 09:28:26;;;;;;;13.80;7.27;;;;;;;;;;5010397;28;20811;-62
2022/09/19 09:31:02;;;;;;;13.53;6.30;;;17.50;93.00;;;;;;5024293;28;20480;-62
2022/09/19 09:33:32;;;;;;;25.23;7.40;;;17.70;93.00;;;;;;5021247;28;20484;-61
2022/09/19 09:36:02;;;;;;;22.73;6.70;;;17.80;91.50;;;;;;5016767;28;20475;-62
2022/09/19 09:38:33;;;;;;;19.93;7.50;;;18.00;90.80;;;;;;5028038;28;20572;-63
2022/09/19 09:44:01;;;;;;;15.40;6.03;;;17.90;90.60;;;;;;5025152;28;20476;-61
2022/09/19 09:46:44;;;;;;;18.33;7.10;;;17.70;90.30;;;;;;5026354;28;20596;-62
2022/09/19 09:49:14;;;;;;;25.60;8.83;;;;;;;;;;5019541;28;20499;-61
2022/09/19 09:51:52;;;;;;;13.47;6.20;;;17.40;90.70;;;;;;5024515;28;20477;-61
2022/09/19 09:57:31;;;;;;;15.80;5.20;;;17.20;89.20;;;;;;5024599;28;20585;-62
2022/09/19 10:05:45;;;;;;;17.60;7.10;;;17.30;91.00;;;;;;5001944;28;20921;-63
2022/09/19 10:08:19;;;;;;;33.03;11.40;;;17.40;91.20;;;;;;5009298;28;20731;-63
2022/09/19 10:10:47;;;;;;;27.97;9.73;;;17.40;90.30;;;;;;5013221;28;20564;-62
2022/09/19 10:13:25;;;;;;;20.03;10.13;;;17.40;89.70;;;;;;5025568;28;20496;-62
2022/09/19 10:15:55;;;;;;;26.10;7.27;;;;;;;;;;5008103;28;20481;-63
2022/09/19 10:18:27;;;;;;;17.83;6.90;;;17.50;90.30;;;;;;5014005;28;20492;-62
2022/09/19 10:20:55;;;;;;;23.00;6.10;;;;;;;;;;5022235;28;20495;-63
2022/09/19 10:23:24;;;;;;;16.90;6.90;;;17.60;90.10;;;;;;5023071;28;20480;-63
2022/09/19 10:25:52;;;;;;;14.83;6.40;;;;;;;;;;5026109;28;20479;-62
2022/09/19 10:28:25;;;;;;;18.70;7.23;;;17.60;90.00;;;;;;5019575;28;20493;-62
2022/09/19 10:30:58;;;;;;;16.37;5.80;;;17.60;89.30;;;;;;5024412;28;20814;-63
2022/09/19 10:33:39;;;;;;;19.70;5.97;;;17.50;89.40;;;;;;5024102;28;20783;-63
2022/09/19 10:36:25;;;;;;;20.30;8.97;;;17.30;89.30;;;;;;5027351;28;20834;-63
2022/09/19 10:38:56;;;;;;;23.93;5.57;;;17.40;90.10;;;;;;5014251;28;21141;-62
2022/09/19 10:41:25;;;;;;;21.37;7.30;;;17.50;89.70;;;;;;5011475;28;20552;-63
2022/09/19 10:43:55;;;;;;;17.07;6.03;;;17.60;90.10;;;;;;5041783;28;20863;-62
2022/09/19 10:46:35;;;;;;;17.30;6.03;;;17.60;88.20;;;;;;5027622;28;21048;-62
2022/09/19 10:49:05;;;;;;;31.40;8.03;;;17.80;89.30;;;;;;5025290;28;20478;-62
2022/09/19 10:51:35;;;;;;;39.20;8.30;;;17.80;89.10;;;;;;5027796;28;21113;-63
2022/09/19 10:54:03;;;;;;;31.53;6.47;;;;;;;;;;5028815;28;20727;-63
2022/09/19 10:56:34;;;;;;;128.27;12.97;;;18.00;88.10;;;;;;5024068;28;20531;-63
2022/09/19 10:59:06;;;;;;;108.50;15.67;;;17.80;87.20;;;;;;5012338;28;20503;-63
2022/09/19 11:01:34;;;;;;;33.07;9.60;;;17.70;87.60;;;;;;5030006;28;20694;-62
2022/09/19 11:04:04;;;;;;;13.73;4.97;;;17.60;88.80;;;;;;5020847;28;20567;-63
2022/09/19 11:06:32;;;;;;;21.03;9.90;;;17.60;87.80;;;;;;5021861;28;21031;-63
2022/09/19 11:09:00;;;;;;;17.80;5.23;;;17.80;87.90;;;;;;5029111;28;21271;-63
2022/09/19 11:11:45;;;;;;;15.50;5.17;;;17.80;88.80;;;;;;5028015;28;21089;-63
2022/09/19 11:14:20;;;;;;;22.47;8.43;;;;;;;;;;5028549;28;20991;-63
2022/09/19 11:17:29;;;;;;;15.80;6.37;;;18.20;88.00;;;;;;5024934;28;20475;-63
2022/09/19 11:20:16;;;;;;;16.13;5.70;;;18.40;88.30;;;;;;4958967;28;20499;-63
2022/09/19 11:22:46;;;;;;;10.57;4.63;;;;;;;;;;4960284;28;20482;-63
2022/09/19 11:25:20;;;;;;;21.43;8.13;;;18.70;85.80;;;;;;5002654;28;20936;-63
2022/09/19 11:27:55;;;;;;;15.93;6.30;;;;;;;;;;5021734;28;20879;-64
2022/09/19 11:30:25;;;;;;;16.67;5.87;;;18.80;84.50;;;;;;5023750;28;20487;-62
2022/09/19 11:33:19;;;;;;;16.40;4.73;;;19.00;86.40;;;;;;5023031;28;20610;-62
2022/09/19 11:35:50;;;;;;;18.60;6.90;;;19.10;84.10;;;;;;5023906;28;20500;-63
2022/09/19 11:38:32;;;;;;;14.00;6.60;;;19.00;81.80;;;;;;5024912;28;21069;-64
2022/09/19 11:41:19;;;;;;;20.90;6.63;;;19.10;83.20;;;;;;5017946;28;20940;-63
2022/09/19 11:43:56;;;;;;;18.43;4.93;;;;;;;;;;5023819;28;20827;-63
2022/09/19 11:46:31;;;;;;;13.53;6.13;;;;;;;;;;5011918;28;20480;-63
2022/09/19 11:49:16;;;;;;;14.50;6.37;;;19.10;84.90;;;;;;5002776;28;20468;-62
2022/09/19 11:51:56;;;;;;;19.03;7.03;;;19.20;82.50;;;;;;5014002;28;20493;-63
2022/09/19 11:54:33;;;;;;;21.27;5.77;;;;;;;;;;5018168;28;20872;-63
2022/09/19 11:57:15;;;;;;;13.27;5.07;;;19.50;85.50;;;;;;5013459;28;20561;-63
2022/09/19 12:00:00;;;;;;;25.33;6.80;;;19.80;82.50;;;;;;5015381;28;20542;-63
2022/09/19 12:02:44;;;;;;;9.50;4.87;;;20.20;80.30;;;;;;5022550;28;20478;-63
2022/09/19 12:05:23;;;;;;;17.03;8.50;;;20.50;79.70;;;;;;5016967;28;20491;-63
2022/09/19 12:08:02;;;;;;;12.53;4.43;;;20.50;75.40;;;;;;5028233;28;20581;-63
2022/09/19 12:10:35;;;;;;;8.00;4.70;;;20.30;76.20;;;;;;5030886;28;20884;-63
2022/09/19 12:13:11;;;;;;;14.50;5.67;;;20.50;75.80;;;;;;5014141;28;20476;-62
2022/09/19 12:15:44;;;;;;;14.20;6.00;;;20.50;77.50;;;;;;5028967;28;20491;-63
2022/09/19 12:18:16;;;;;;;14.83;7.07;;;20.50;76.70;;;;;;5023987;28;20618;-63
2022/09/19 12:20:47;;;;;;;16.83;4.97;;;20.20;75.00;;;;;;5026150;28;20489;-63
2022/09/19 12:26:00;;;;;;;29.93;11.00;;;19.90;77.70;;;;;;4993930;28;21371;-63
2022/09/19 12:28:32;;;;;;;15.10;6.70;;;19.80;78.60;;;;;;5021186;28;20480;-63
2022/09/19 12:31:03;;;;;;;17.30;5.77;;;19.80;77.80;;;;;;5010409;28;20502;-63
2022/09/19 12:33:35;;;;;;;13.57;4.97;;;19.80;77.50;;;;;;5026639;28;20898;-63
2022/09/19 12:36:17;;;;;;;13.00;5.70;;;19.50;75.60;;;;;;5009795;28;20547;-63
2022/09/19 12:38:49;;;;;;;14.23;6.30;;;19.20;75.40;;;;;;5003730;28;20673;-62
2022/09/19 12:41:24;;;;;;;13.20;6.53;;;18.90;74.20;;;;;;5034590;28;20515;-62
2022/09/19 12:43:59;;;;;;;16.03;4.23;;;18.70;74.20;;;;;;5030130;28;20889;-62
2022/09/19 12:46:35;;;;;;;19.27;6.80;;;;;;;;;;5021650;28;20491;-62
2022/09/19 12:49:12;;;;;;;17.43;6.50;;;18.60;74.30;;;;;;5030540;28;20475;-61
2022/09/19 12:51:47;;;;;;;17.80;7.20;;;;;;;;;;5011037;28;20644;-61
2022/09/19 12:54:18;;;;;;;14.13;6.03;;;18.80;76.80;;;;;;5012271;28;20623;-61
2022/09/19 12:56:50;;;;;;;11.90;5.43;;;;;;;;;;5011433;28;20498;-61
2022/09/19 12:59:20;;;;;;;12.90;6.37;;;18.90;75.80;;;;;;5023573;28;20480;-61
2022/09/19 13:01:56;;;;;;;16.27;5.90;;;19.00;71.40;;;;;;5023013;28;20850;-61
2022/09/19 13:04:34;;;;;;;14.20;5.30;;;19.30;77.60;;;;;;5025908;28;20472;-61
2022/09/19 13:07:10;;;;;;;10.60;6.00;;;19.60;72.50;;;;;;5025094;28;20507;-61
2022/09/19 13:09:47;;;;;;;11.10;5.60;;;19.80;73.20;;;;;;5012362;28;20561;-62
2022/09/19 13:12:19;;;;;;;15.23;6.60;;;20.00;71.90;;;;;;5017212;28;20468;-62
2022/09/19 13:14:52;;;;;;;18.57;5.50;;;20.00;69.30;;;;;;5019131;28;20467;-62
2022/09/19 13:25:49;;;;;;;14.33;4.20;;;20.60;74.20;;;;;;5016422;28;20659;-62
2022/09/19 13:28:34;;;;;;;17.60;7.87;;;20.40;72.90;;;;;;5025605;28;20493;-62
2022/09/19 13:31:12;;;;;;;15.47;4.53;;;20.30;72.50;;;;;;5023430;28;20491;-62
2022/09/19 13:33:45;;;;;;;34.10;6.67;;;17.60;72.30;;;;;;5030688;28;21332;-62
2022/09/19 13:36:14;;;;;;;28.87;8.70;;;20.00;73.00;;;;;;5021670;28;20471;-64
2022/09/19 13:38:45;;;;;;;15.57;6.90;;;19.90;73.90;;;;;;5033436;28;20493;-63
2022/09/19 13:41:18;;;;;;;23.90;7.93;;;;;;;;;;5016295;28;20469;-64